sensor_id;sensor_type;location;lat;lon;timestamp;P1;durP1;ratioP1;P2;durP2;ratioP2
58252;SDS011;44050;48.884;8.762;2022-08-26T00:02:25;1.65;;;1.55;;
58252;SDS011;44050;48.884;8.762;2022-08-26T00:04:56;1.80;;;1.23;;
58252;SDS011;44050;48.884;8.762;2022-08-26T00:07:27;1.35;;;1.17;;
58252;SDS011;44050;48.884;8.762;2022-08-26T00:09:58;1.35;;;1.25;;
58252;SDS011;44050;48.884;8.762;2022-08-26T00:12:28;1.58;;;1.45;;
58252;SDS011;44050;48.884;8.762;2022-08-26T00:14:59;1.52;;;1.38;;
58252;SDS011;44050;48.884;8.762;2022-08-26T00:17:30;3.47;;;1.73;;
58252;SDS011;44050;48.884;8.762;2022-08-26T00:20:01;1.02;;;1.00;;
58252;SDS011;44050;48.884;8.762;2022-08-26T00:22:32;1.40;;;1.27;;
58252;SDS011;44050;48.884;8.762;2022-08-26T00:25:03;1.10;;;1.00;;
58252;SDS011;44050;48.884;8.762;2022-08-26T00:27:34;1.60;;;1.27;;
58252;SDS011;44050;48.884;8.762;2022-08-26T00:30:06;1.60;;;1.38;;
58252;SDS011;44050;48.884;8.762;2022-08-26T00:32:37;1.40;;;1.20;;
58252;SDS011;44050;48.884;8.762;2022-08-26T00:37:40;1.10;;;1.10;;
58252;SDS011;44050;48.884;8.762;2022-08-26T00:40:13;2.15;;;1.95;;
58252;SDS011;44050;48.884;8.762;2022-08-26T00:42:44;1.10;;;1.10;;
58252;SDS011;44050;48.884;8.762;2022-08-26T00:47:47;0.95;;;0.95;;
58252;SDS011;44050;48.884;8.762;2022-08-26T00:50:21;1.35;;;1.33;;
58252;SDS011;44050;48.884;8.762;2022-08-26T00:52:52;1.10;;;1.10;;
58252;SDS011;44050;48.884;8.762;2022-08-26T00:55:31;6.63;;;1.10;;
58252;SDS011;44050;48.884;8.762;2022-08-26T00:58:03;1.83;;;1.73;;
58252;SDS011;44050;48.884;8.762;2022-08-26T01:00:34;3.20;;;2.03;;
58252;SDS011;44050;48.884;8.762;2022-08-26T01:05:37;3.13;;;1.10;;
58252;SDS011;44050;48.884;8.762;2022-08-26T01:08:07;1.40;;;1.30;;
58252;SDS011;44050;48.884;8.762;2022-08-26T01:13:09;1.43;;;1.23;;
58252;SDS011;44050;48.884;8.762;2022-08-26T01:15:42;5.03;;;2.03;;
58252;SDS011;44050;48.884;8.762;2022-08-26T01:18:13;1.58;;;1.48;;
58252;SDS011;44050;48.884;8.762;2022-08-26T01:20:46;0.98;;;0.98;;
58252;SDS011;44050;48.884;8.762;2022-08-26T01:23:20;0.80;;;0.80;;
58252;SDS011;44050;48.884;8.762;2022-08-26T01:25:53;1.25;;;1.25;;
58252;SDS011;44050;48.884;8.762;2022-08-26T01:28:25;1.98;;;1.88;;
58252;SDS011;44050;48.884;8.762;2022-08-26T01:30:57;5.32;;;1.40;;
58252;SDS011;44050;48.884;8.762;2022-08-26T01:33:30;2.25;;;1.88;;
58252;SDS011;44050;48.884;8.762;2022-08-26T01:36:02;3.97;;;1.40;;
58252;SDS011;44050;48.884;8.762;2022-08-26T01:38:32;1.73;;;1.63;;
58252;SDS011;44050;48.884;8.762;2022-08-26T01:43:34;2.00;;;1.40;;
58252;SDS011;44050;48.884;8.762;2022-08-26T01:46:08;1.88;;;1.77;;
58252;SDS011;44050;48.884;8.762;2022-08-26T01:51:10;1.27;;;1.20;;
58252;SDS011;44050;48.884;8.762;2022-08-26T01:53:41;1.48;;;0.98;;
58252;SDS011;44050;48.884;8.762;2022-08-26T01:56:13;1.55;;;1.45;;
58252;SDS011;44050;48.884;8.762;2022-08-26T01:58:47;2.50;;;2.30;;
58252;SDS011;44050;48.884;8.762;2022-08-26T02:01:21;2.05;;;1.95;;
58252;SDS011;44050;48.884;8.762;2022-08-26T02:03:58;1.67;;;1.58;;
58252;SDS011;44050;48.884;8.762;2022-08-26T02:06:30;1.60;;;1.50;;
58252;SDS011;44050;48.884;8.762;2022-08-26T02:11:32;1.80;;;1.20;;
58252;SDS011;44050;48.884;8.762;2022-08-26T02:14:04;1.85;;;1.73;;
58252;SDS011;44050;48.884;8.762;2022-08-26T02:16:37;2.00;;;1.80;;
58252;SDS011;44050;48.884;8.762;2022-08-26T02:19:19;1.30;;;1.20;;
58252;SDS011;44050;48.884;8.762;2022-08-26T02:21:51;1.17;;;1.13;;
58252;SDS011;44050;48.884;8.762;2022-08-26T02:24:23;1.90;;;1.60;;
58252;SDS011;44050;48.884;8.762;2022-08-26T02:26:57;1.98;;;1.75;;
58252;SDS011;44050;48.884;8.762;2022-08-26T02:29:30;1.80;;;1.70;;
58252;SDS011;44050;48.884;8.762;2022-08-26T02:32:02;1.05;;;1.05;;
58252;SDS011;44050;48.884;8.762;2022-08-26T02:37:06;1.23;;;1.23;;
58252;SDS011;44050;48.884;8.762;2022-08-26T02:39:38;1.40;;;1.00;;
58252;SDS011;44050;48.884;8.762;2022-08-26T02:42:10;3.10;;;1.63;;
58252;SDS011;44050;48.884;8.762;2022-08-26T02:47:12;1.17;;;1.17;;
58252;SDS011;44050;48.884;8.762;2022-08-26T02:49:42;1.50;;;1.40;;
58252;SDS011;44050;48.884;8.762;2022-08-26T02:52:13;2.22;;;1.75;;
58252;SDS011;44050;48.884;8.762;2022-08-26T02:57:15;1.83;;;1.03;;
58252;SDS011;44050;48.884;8.762;2022-08-26T02:59:46;1.83;;;1.60;;
58252;SDS011;44050;48.884;8.762;2022-08-26T03:04:48;2.90;;;1.60;;
58252;SDS011;44050;48.884;8.762;2022-08-26T03:07:18;1.98;;;1.13;;
58252;SDS011;44050;48.884;8.762;2022-08-26T03:12:20;1.10;;;1.10;;
58252;SDS011;44050;48.884;8.762;2022-08-26T03:17:21;0.80;;;0.80;;
58252;SDS011;44050;48.884;8.762;2022-08-26T03:22:22;1.20;;;1.10;;
58252;SDS011;44050;48.884;8.762;2022-08-26T03:27:24;1.30;;;1.25;;
58252;SDS011;44050;48.884;8.762;2022-08-26T03:32:44;1.05;;;0.85;;
58252;SDS011;44050;48.884;8.762;2022-08-26T03:37:45;0.68;;;0.68;;
58252;SDS011;44050;48.884;8.762;2022-08-26T03:42:47;0.85;;;0.70;;
58252;SDS011;44050;48.884;8.762;2022-08-26T03:47:48;0.80;;;0.80;;
58252;SDS011;44050;48.884;8.762;2022-08-26T03:52:50;8.13;;;2.43;;
58252;SDS011;44050;48.884;8.762;2022-08-26T03:55:22;8.82;;;4.13;;
58252;SDS011;44050;48.884;8.762;2022-08-26T03:57:53;7.80;;;6.18;;
58252;SDS011;44050;48.884;8.762;2022-08-26T04:02:54;2.67;;;2.13;;
58252;SDS011;44050;48.884;8.762;2022-08-26T04:07:57;2.78;;;1.88;;
58252;SDS011;44050;48.884;8.762;2022-08-26T04:12:58;2.30;;;1.87;;
58252;SDS011;44050;48.884;8.762;2022-08-26T04:17:59;1.77;;;1.67;;
58252;SDS011;44050;48.884;8.762;2022-08-26T04:23:01;1.30;;;1.30;;
58252;SDS011;44050;48.884;8.762;2022-08-26T04:28:02;1.70;;;1.60;;
58252;SDS011;44050;48.884;8.762;2022-08-26T04:30:38;1.55;;;1.20;;
58252;SDS011;44050;48.884;8.762;2022-08-26T04:35:43;1.70;;;1.60;;
58252;SDS011;44050;48.884;8.762;2022-08-26T04:38:15;1.65;;;1.55;;
58252;SDS011;44050;48.884;8.762;2022-08-26T04:40:46;1.65;;;1.55;;
58252;SDS011;44050;48.884;8.762;2022-08-26T04:45:47;2.90;;;0.93;;
58252;SDS011;44050;48.884;8.762;2022-08-26T04:50:48;2.07;;;0.93;;
58252;SDS011;44050;48.884;8.762;2022-08-26T04:55:50;2.00;;;1.67;;
58252;SDS011;44050;48.884;8.762;2022-08-26T05:00:52;1.67;;;1.58;;
58252;SDS011;44050;48.884;8.762;2022-08-26T05:03:23;3.72;;;1.50;;
58252;SDS011;44050;48.884;8.762;2022-08-26T05:05:54;5.28;;;2.30;;
58252;SDS011;44050;48.884;8.762;2022-08-26T05:08:25;2.25;;;1.85;;
58252;SDS011;44050;48.884;8.762;2022-08-26T05:10:56;35.30;;;3.08;;
58252;SDS011;44050;48.884;8.762;2022-08-26T05:13:27;2.85;;;2.28;;
58252;SDS011;44050;48.884;8.762;2022-08-26T05:16:00;1.80;;;1.70;;
58252;SDS011;44050;48.884;8.762;2022-08-26T05:18:31;1.70;;;1.70;;
58252;SDS011;44050;48.884;8.762;2022-08-26T05:21:03;2.58;;;1.55;;
58252;SDS011;44050;48.884;8.762;2022-08-26T05:23:34;2.05;;;1.77;;
58252;SDS011;44050;48.884;8.762;2022-08-26T05:26:06;1.50;;;1.40;;
58252;SDS011;44050;48.884;8.762;2022-08-26T05:28:37;1.48;;;1.38;;
58252;SDS011;44050;48.884;8.762;2022-08-26T05:31:11;2.10;;;2.00;;
58252;SDS011;44050;48.884;8.762;2022-08-26T05:33:43;2.00;;;1.88;;
58252;SDS011;44050;48.884;8.762;2022-08-26T05:36:15;2.95;;;1.52;;
58252;SDS011;44050;48.884;8.762;2022-08-26T05:38:47;1.55;;;1.45;;
58252;SDS011;44050;48.884;8.762;2022-08-26T05:41:19;3.00;;;2.28;;
58252;SDS011;44050;48.884;8.762;2022-08-26T05:43:51;1.60;;;1.50;;
58252;SDS011;44050;48.884;8.762;2022-08-26T05:46:22;2.00;;;1.90;;
58252;SDS011;44050;48.884;8.762;2022-08-26T05:48:54;1.65;;;1.55;;
58252;SDS011;44050;48.884;8.762;2022-08-26T05:51:25;2.10;;;2.00;;
58252;SDS011;44050;48.884;8.762;2022-08-26T05:53:56;2.03;;;1.92;;
58252;SDS011;44050;48.884;8.762;2022-08-26T05:56:27;1.48;;;1.38;;
58252;SDS011;44050;48.884;8.762;2022-08-26T05:59:04;1.45;;;1.45;;
58252;SDS011;44050;48.884;8.762;2022-08-26T06:01:35;1.95;;;1.85;;
58252;SDS011;44050;48.884;8.762;2022-08-26T06:04:05;5.10;;;1.90;;
58252;SDS011;44050;48.884;8.762;2022-08-26T06:06:37;2.50;;;2.30;;
58252;SDS011;44050;48.884;8.762;2022-08-26T06:09:10;3.47;;;2.65;;
58252;SDS011;44050;48.884;8.762;2022-08-26T06:11:41;1.60;;;1.50;;
58252;SDS011;44050;48.884;8.762;2022-08-26T06:14:14;3.55;;;2.40;;
58252;SDS011;44050;48.884;8.762;2022-08-26T06:16:45;1.85;;;1.42;;
58252;SDS011;44050;48.884;8.762;2022-08-26T06:19:15;5.65;;;1.52;;
58252;SDS011;44050;48.884;8.762;2022-08-26T06:21:47;2.63;;;2.42;;
58252;SDS011;44050;48.884;8.762;2022-08-26T06:24:18;2.03;;;1.92;;
58252;SDS011;44050;48.884;8.762;2022-08-26T06:27:11;3.05;;;1.80;;
58252;SDS011;44050;48.884;8.762;2022-08-26T06:29:43;2.03;;;1.90;;
58252;SDS011;44050;48.884;8.762;2022-08-26T06:32:16;2.28;;;2.08;;
58252;SDS011;44050;48.884;8.762;2022-08-26T06:34:47;1.75;;;1.65;;
58252;SDS011;44050;48.884;8.762;2022-08-26T06:37:18;2.00;;;1.90;;
58252;SDS011;44050;48.884;8.762;2022-08-26T06:39:49;2.67;;;2.47;;
58252;SDS011;44050;48.884;8.762;2022-08-26T06:42:20;1.58;;;1.48;;
58252;SDS011;44050;48.884;8.762;2022-08-26T06:44:52;4.75;;;3.05;;
58252;SDS011;44050;48.884;8.762;2022-08-26T06:47:23;4.57;;;1.83;;
58252;SDS011;44050;48.884;8.762;2022-08-26T06:49:54;2.97;;;2.78;;
58252;SDS011;44050;48.884;8.762;2022-08-26T06:52:27;4.03;;;1.92;;
58252;SDS011;44050;48.884;8.762;2022-08-26T06:55:05;3.95;;;2.08;;
58252;SDS011;44050;48.884;8.762;2022-08-26T06:57:36;4.15;;;2.92;;
58252;SDS011;44050;48.884;8.762;2022-08-26T07:00:08;1.85;;;1.75;;
58252;SDS011;44050;48.884;8.762;2022-08-26T07:02:41;2.10;;;1.98;;
58252;SDS011;44050;48.884;8.762;2022-08-26T07:05:12;1.58;;;1.48;;
58252;SDS011;44050;48.884;8.762;2022-08-26T07:07:43;2.80;;;2.60;;
58252;SDS011;44050;48.884;8.762;2022-08-26T07:10:13;2.33;;;2.13;;
58252;SDS011;44050;48.884;8.762;2022-08-26T07:12:45;1.75;;;1.73;;
58252;SDS011;44050;48.884;8.762;2022-08-26T07:15:16;1.73;;;1.63;;
58252;SDS011;44050;48.884;8.762;2022-08-26T07:17:47;2.75;;;2.40;;
58252;SDS011;44050;48.884;8.762;2022-08-26T07:20:18;7.38;;;3.28;;
58252;SDS011;44050;48.884;8.762;2022-08-26T07:22:49;2.33;;;2.22;;
58252;SDS011;44050;48.884;8.762;2022-08-26T07:25:20;2.33;;;2.13;;
58252;SDS011;44050;48.884;8.762;2022-08-26T07:27:50;1.75;;;1.63;;
58252;SDS011;44050;48.884;8.762;2022-08-26T07:30:22;2.80;;;2.53;;
58252;SDS011;44050;48.884;8.762;2022-08-26T07:32:54;2.53;;;2.00;;
58252;SDS011;44050;48.884;8.762;2022-08-26T07:35:28;2.60;;;2.13;;
58252;SDS011;44050;48.884;8.762;2022-08-26T07:37:59;3.33;;;3.03;;
58252;SDS011;44050;48.884;8.762;2022-08-26T07:40:31;2.13;;;1.90;;
58252;SDS011;44050;48.884;8.762;2022-08-26T07:43:03;3.55;;;1.70;;
58252;SDS011;44050;48.884;8.762;2022-08-26T07:45:34;2.55;;;2.45;;
58252;SDS011;44050;48.884;8.762;2022-08-26T07:48:06;2.28;;;2.05;;
58252;SDS011;44050;48.884;8.762;2022-08-26T07:50:37;3.05;;;2.78;;
58252;SDS011;44050;48.884;8.762;2022-08-26T07:53:08;3.05;;;2.13;;
58252;SDS011;44050;48.884;8.762;2022-08-26T07:55:39;3.17;;;2.30;;
58252;SDS011;44050;48.884;8.762;2022-08-26T07:58:10;1.98;;;1.80;;
58252;SDS011;44050;48.884;8.762;2022-08-26T08:00:45;1.98;;;1.88;;
58252;SDS011;44050;48.884;8.762;2022-08-26T08:03:17;1.80;;;1.70;;
58252;SDS011;44050;48.884;8.762;2022-08-26T08:05:54;2.85;;;2.15;;
58252;SDS011;44050;48.884;8.762;2022-08-26T08:08:28;5.05;;;2.35;;
58252;SDS011;44050;48.884;8.762;2022-08-26T08:10:59;2.22;;;2.10;;
58252;SDS011;44050;48.884;8.762;2022-08-26T08:13:51;3.50;;;1.85;;
58252;SDS011;44050;48.884;8.762;2022-08-26T08:16:29;2.20;;;2.00;;
58252;SDS011;44050;48.884;8.762;2022-08-26T08:19:00;2.22;;;2.13;;
58252;SDS011;44050;48.884;8.762;2022-08-26T08:21:31;1.80;;;1.70;;
58252;SDS011;44050;48.884;8.762;2022-08-26T08:24:02;2.03;;;1.92;;
58252;SDS011;44050;48.884;8.762;2022-08-26T08:26:33;2.88;;;2.67;;
58252;SDS011;44050;48.884;8.762;2022-08-26T08:29:30;2.63;;;2.30;;
58252;SDS011;44050;48.884;8.762;2022-08-26T08:32:38;3.00;;;2.00;;
58252;SDS011;44050;48.884;8.762;2022-08-26T08:35:11;3.63;;;2.30;;
58252;SDS011;44050;48.884;8.762;2022-08-26T08:38:01;6.50;;;3.08;;
58252;SDS011;44050;48.884;8.762;2022-08-26T08:40:50;2.47;;;2.35;;
58252;SDS011;44050;48.884;8.762;2022-08-26T08:43:42;1.90;;;1.80;;
58252;SDS011;44050;48.884;8.762;2022-08-26T08:46:17;2.38;;;2.28;;
58252;SDS011;44050;48.884;8.762;2022-08-26T08:49:13;2.03;;;1.75;;
58252;SDS011;44050;48.884;8.762;2022-08-26T08:54:36;2.45;;;2.35;;
58252;SDS011;44050;48.884;8.762;2022-08-26T08:57:11;2.63;;;2.53;;
58252;SDS011;44050;48.884;8.762;2022-08-26T09:00:04;2.67;;;2.47;;
58252;SDS011;44050;48.884;8.762;2022-08-26T09:08:01;1.58;;;1.48;;
58252;SDS011;44050;48.884;8.762;2022-08-26T09:10:36;3.83;;;2.78;;
58252;SDS011;44050;48.884;8.762;2022-08-26T09:21:09;3.08;;;2.88;;
58252;SDS011;44050;48.884;8.762;2022-08-26T09:23:40;5.85;;;2.90;;
58252;SDS011;44050;48.884;8.762;2022-08-26T09:28:56;2.70;;;2.50;;
58252;SDS011;44050;48.884;8.762;2022-08-26T09:31:31;1.70;;;1.60;;
58252;SDS011;44050;48.884;8.762;2022-08-26T09:36:37;2.33;;;2.22;;
58252;SDS011;44050;48.884;8.762;2022-08-26T09:39:55;3.47;;;2.45;;
58252;SDS011;44050;48.884;8.762;2022-08-26T09:47:31;2.78;;;2.58;;
58252;SDS011;44050;48.884;8.762;2022-08-26T09:52:36;4.45;;;2.88;;
58252;SDS011;44050;48.884;8.762;2022-08-26T09:57:45;2.85;;;2.63;;
58252;SDS011;44050;48.884;8.762;2022-08-26T10:02:58;2.50;;;2.30;;
58252;SDS011;44050;48.884;8.762;2022-08-26T10:05:31;2.55;;;2.35;;
58252;SDS011;44050;48.884;8.762;2022-08-26T10:08:15;6.35;;;2.80;;
58252;SDS011;44050;48.884;8.762;2022-08-26T10:10:47;2.95;;;2.65;;
58252;SDS011;44050;48.884;8.762;2022-08-26T10:13:24;3.03;;;2.72;;
58252;SDS011;44050;48.884;8.762;2022-08-26T10:18:36;5.43;;;3.65;;
58252;SDS011;44050;48.884;8.762;2022-08-26T10:21:11;5.63;;;2.88;;
58252;SDS011;44050;48.884;8.762;2022-08-26T10:23:45;2.92;;;2.72;;
58252;SDS011;44050;48.884;8.762;2022-08-26T10:33:56;3.03;;;2.50;;
58252;SDS011;44050;48.884;8.762;2022-08-26T10:36:29;3.10;;;2.90;;
58252;SDS011;44050;48.884;8.762;2022-08-26T10:41:54;2.97;;;2.53;;
58252;SDS011;44050;48.884;8.762;2022-08-26T10:44:26;8.70;;;2.72;;
58252;SDS011;44050;48.884;8.762;2022-08-26T10:47:01;3.33;;;2.75;;
58252;SDS011;44050;48.884;8.762;2022-08-26T10:49:32;3.63;;;3.33;;
58252;SDS011;44050;48.884;8.762;2022-08-26T10:52:06;4.45;;;3.10;;
58252;SDS011;44050;48.884;8.762;2022-08-26T10:54:57;3.08;;;2.78;;
58252;SDS011;44050;48.884;8.762;2022-08-26T11:00:20;3.22;;;2.88;;
58252;SDS011;44050;48.884;8.762;2022-08-26T11:05:43;2.70;;;2.50;;
58252;SDS011;44050;48.884;8.762;2022-08-26T11:10:56;6.05;;;2.53;;
58252;SDS011;44050;48.884;8.762;2022-08-26T11:16:30;3.40;;;3.10;;
58252;SDS011;44050;48.884;8.762;2022-08-26T11:19:05;4.65;;;3.30;;
58252;SDS011;44050;48.884;8.762;2022-08-26T11:21:50;2.95;;;2.75;;
58252;SDS011;44050;48.884;8.762;2022-08-26T11:30:05;2.53;;;2.33;;
58252;SDS011;44050;48.884;8.762;2022-08-26T11:37:45;3.78;;;3.45;;
58252;SDS011;44050;48.884;8.762;2022-08-26T11:40:18;3.20;;;2.70;;
58252;SDS011;44050;48.884;8.762;2022-08-26T11:48:20;2.85;;;2.50;;
58252;SDS011;44050;48.884;8.762;2022-08-26T11:51:03;3.17;;;2.88;;
58252;SDS011;44050;48.884;8.762;2022-08-26T11:53:36;3.20;;;2.92;;
58252;SDS011;44050;48.884;8.762;2022-08-26T11:56:08;3.85;;;3.42;;
58252;SDS011;44050;48.884;8.762;2022-08-26T11:58:43;3.85;;;3.58;;
58252;SDS011;44050;48.884;8.762;2022-08-26T12:01:33;2.42;;;2.22;;
58252;SDS011;44050;48.884;8.762;2022-08-26T12:04:14;4.50;;;2.80;;
58252;SDS011;44050;48.884;8.762;2022-08-26T12:07:03;3.45;;;3.15;;
58252;SDS011;44050;48.884;8.762;2022-08-26T12:10:02;4.63;;;2.55;;
58252;SDS011;44050;48.884;8.762;2022-08-26T12:12:33;4.50;;;3.50;;
58252;SDS011;44050;48.884;8.762;2022-08-26T12:15:13;5.88;;;2.78;;
58252;SDS011;44050;48.884;8.762;2022-08-26T12:17:57;5.70;;;4.00;;
58252;SDS011;44050;48.884;8.762;2022-08-26T12:20:45;2.97;;;2.65;;
58252;SDS011;44050;48.884;8.762;2022-08-26T12:27:05;4.13;;;3.35;;
58252;SDS011;44050;48.884;8.762;2022-08-26T12:32:34;2.83;;;2.30;;
58252;SDS011;44050;48.884;8.762;2022-08-26T12:35:08;3.47;;;3.28;;
58252;SDS011;44050;48.884;8.762;2022-08-26T12:37:45;3.47;;;3.28;;
58252;SDS011;44050;48.884;8.762;2022-08-26T12:43:14;5.25;;;2.63;;
58252;SDS011;44050;48.884;8.762;2022-08-26T12:46:04;4.80;;;3.20;;
58252;SDS011;44050;48.884;8.762;2022-08-26T12:48:57;2.25;;;2.05;;
58252;SDS011;44050;48.884;8.762;2022-08-26T13:16:38;3.20;;;2.90;;
58252;SDS011;44050;48.884;8.762;2022-08-26T13:19:15;2.35;;;2.25;;
58252;SDS011;44050;48.884;8.762;2022-08-26T13:21:47;4.28;;;2.17;;
58252;SDS011;44050;48.884;8.762;2022-08-26T13:24:33;2.70;;;2.50;;
58252;SDS011;44050;48.884;8.762;2022-08-26T13:27:15;2.67;;;2.50;;
58252;SDS011;44050;48.884;8.762;2022-08-26T13:29:50;3.22;;;2.63;;
58252;SDS011;44050;48.884;8.762;2022-08-26T13:32:21;6.25;;;3.38;;
58252;SDS011;44050;48.884;8.762;2022-08-26T13:34:52;3.05;;;2.20;;
58252;SDS011;44050;48.884;8.762;2022-08-26T13:37:24;4.15;;;2.85;;
58252;SDS011;44050;48.884;8.762;2022-08-26T13:39:56;2.10;;;1.98;;
58252;SDS011;44050;48.884;8.762;2022-08-26T13:42:28;5.13;;;2.53;;
58252;SDS011;44050;48.884;8.762;2022-08-26T13:45:00;5.90;;;2.88;;
58252;SDS011;44050;48.884;8.762;2022-08-26T13:47:31;4.28;;;2.72;;
58252;SDS011;44050;48.884;8.762;2022-08-26T13:50:02;2.20;;;2.10;;
58252;SDS011;44050;48.884;8.762;2022-08-26T13:52:34;6.28;;;2.97;;
58252;SDS011;44050;48.884;8.762;2022-08-26T13:55:05;2.53;;;2.33;;
58252;SDS011;44050;48.884;8.762;2022-08-26T13:57:37;2.85;;;2.63;;
58252;SDS011;44050;48.884;8.762;2022-08-26T14:00:08;2.25;;;2.10;;
58252;SDS011;44050;48.884;8.762;2022-08-26T14:02:39;6.82;;;2.95;;
58252;SDS011;44050;48.884;8.762;2022-08-26T14:05:10;2.28;;;2.17;;
58252;SDS011;44050;48.884;8.762;2022-08-26T14:07:41;3.72;;;2.15;;
58252;SDS011;44050;48.884;8.762;2022-08-26T14:10:12;3.03;;;2.78;;
58252;SDS011;44050;48.884;8.762;2022-08-26T14:12:43;2.78;;;2.45;;
58252;SDS011;44050;48.884;8.762;2022-08-26T14:15:15;3.13;;;2.85;;
58252;SDS011;44050;48.884;8.762;2022-08-26T14:17:47;3.08;;;2.80;;
58252;SDS011;44050;48.884;8.762;2022-08-26T14:20:20;3.92;;;2.25;;
58252;SDS011;44050;48.884;8.762;2022-08-26T14:22:52;1.75;;;1.65;;
58252;SDS011;44050;48.884;8.762;2022-08-26T14:25:23;3.38;;;2.70;;
58252;SDS011;44050;48.884;8.762;2022-08-26T14:27:54;2.42;;;2.28;;
58252;SDS011;44050;48.884;8.762;2022-08-26T14:30:26;4.75;;;3.10;;
58252;SDS011;44050;48.884;8.762;2022-08-26T14:32:57;2.65;;;2.47;;
58252;SDS011;44050;48.884;8.762;2022-08-26T14:35:31;6.03;;;3.47;;
58252;SDS011;44050;48.884;8.762;2022-08-26T14:38:03;2.70;;;2.45;;
58252;SDS011;44050;48.884;8.762;2022-08-26T14:40:34;3.53;;;2.13;;
58252;SDS011;44050;48.884;8.762;2022-08-26T14:43:05;2.28;;;2.00;;
58252;SDS011;44050;48.884;8.762;2022-08-26T14:45:39;7.63;;;2.50;;
58252;SDS011;44050;48.884;8.762;2022-08-26T14:48:10;10.95;;;3.17;;
58252;SDS011;44050;48.884;8.762;2022-08-26T14:50:44;6.68;;;3.63;;
58252;SDS011;44050;48.884;8.762;2022-08-26T14:53:15;6.13;;;3.25;;
58252;SDS011;44050;48.884;8.762;2022-08-26T14:56:04;1.83;;;1.65;;
58252;SDS011;44050;48.884;8.762;2022-08-26T14:58:35;1.98;;;1.30;;
58252;SDS011;44050;48.884;8.762;2022-08-26T15:01:06;2.78;;;1.52;;
58252;SDS011;44050;48.884;8.762;2022-08-26T15:03:37;2.47;;;1.33;;
58252;SDS011;44050;48.884;8.762;2022-08-26T15:06:08;2.97;;;2.38;;
58252;SDS011;44050;48.884;8.762;2022-08-26T15:08:39;3.50;;;1.98;;
58252;SDS011;44050;48.884;8.762;2022-08-26T15:11:11;5.82;;;3.13;;
58252;SDS011;44050;48.884;8.762;2022-08-26T15:13:48;4.38;;;3.17;;
58252;SDS011;44050;48.884;8.762;2022-08-26T15:16:26;3.17;;;2.83;;
58252;SDS011;44050;48.884;8.762;2022-08-26T15:18:58;3.63;;;3.28;;
58252;SDS011;44050;48.884;8.762;2022-08-26T15:21:34;6.20;;;2.22;;
58252;SDS011;44050;48.884;8.762;2022-08-26T15:24:11;3.33;;;1.95;;
58252;SDS011;44050;48.884;8.762;2022-08-26T15:26:49;4.45;;;1.95;;
58252;SDS011;44050;48.884;8.762;2022-08-26T15:29:21;1.77;;;1.42;;
58252;SDS011;44050;48.884;8.762;2022-08-26T15:31:53;1.42;;;1.40;;
58252;SDS011;44050;48.884;8.762;2022-08-26T15:34:28;6.25;;;2.08;;
58252;SDS011;44050;48.884;8.762;2022-08-26T15:37:07;5.78;;;3.42;;
58252;SDS011;44050;48.884;8.762;2022-08-26T15:39:38;1.88;;;1.75;;
58252;SDS011;44050;48.884;8.762;2022-08-26T15:42:09;2.22;;;2.00;;
58252;SDS011;44050;48.884;8.762;2022-08-26T15:44:41;3.25;;;2.78;;
58252;SDS011;44050;48.884;8.762;2022-08-26T15:47:13;2.55;;;2.08;;
58252;SDS011;44050;48.884;8.762;2022-08-26T15:49:44;1.88;;;1.77;;
58252;SDS011;44050;48.884;8.762;2022-08-26T15:52:15;6.88;;;2.88;;
58252;SDS011;44050;48.884;8.762;2022-08-26T15:54:46;2.53;;;1.50;;
58252;SDS011;44050;48.884;8.762;2022-08-26T15:57:17;2.92;;;1.83;;
58252;SDS011;44050;48.884;8.762;2022-08-26T15:59:47;3.40;;;2.92;;
58252;SDS011;44050;48.884;8.762;2022-08-26T16:02:18;6.70;;;1.83;;
58252;SDS011;44050;48.884;8.762;2022-08-26T16:04:49;2.63;;;2.08;;
58252;SDS011;44050;48.884;8.762;2022-08-26T16:07:20;4.82;;;2.60;;
58252;SDS011;44050;48.884;8.762;2022-08-26T16:09:51;4.20;;;2.17;;
58252;SDS011;44050;48.884;8.762;2022-08-26T16:12:24;3.50;;;2.85;;
58252;SDS011;44050;48.884;8.762;2022-08-26T16:14:54;3.10;;;2.10;;
58252;SDS011;44050;48.884;8.762;2022-08-26T16:17:25;2.13;;;1.92;;
58252;SDS011;44050;48.884;8.762;2022-08-26T16:20:03;3.13;;;2.25;;
58252;SDS011;44050;48.884;8.762;2022-08-26T16:22:35;2.08;;;1.92;;
58252;SDS011;44050;48.884;8.762;2022-08-26T16:25:14;3.20;;;2.17;;
58252;SDS011;44050;48.884;8.762;2022-08-26T16:27:47;14.43;;;1.92;;
58252;SDS011;44050;48.884;8.762;2022-08-26T16:30:24;1.65;;;1.55;;
58252;SDS011;44050;48.884;8.762;2022-08-26T16:32:56;4.10;;;2.50;;
58252;SDS011;44050;48.884;8.762;2022-08-26T16:35:33;5.75;;;1.77;;
58252;SDS011;44050;48.884;8.762;2022-08-26T16:38:18;1.45;;;1.17;;
58252;SDS011;44050;48.884;8.762;2022-08-26T16:40:49;2.42;;;1.85;;
58252;SDS011;44050;48.884;8.762;2022-08-26T16:43:22;2.00;;;1.67;;
58252;SDS011;44050;48.884;8.762;2022-08-26T16:45:57;2.10;;;1.15;;
58252;SDS011;44050;48.884;8.762;2022-08-26T16:48:28;0.85;;;0.85;;
58252;SDS011;44050;48.884;8.762;2022-08-26T16:50:59;1.15;;;1.08;;
58252;SDS011;44050;48.884;8.762;2022-08-26T16:53:32;1.20;;;1.10;;
58252;SDS011;44050;48.884;8.762;2022-08-26T16:56:03;0.80;;;0.80;;
58252;SDS011;44050;48.884;8.762;2022-08-26T16:58:43;1.38;;;1.15;;
58252;SDS011;44050;48.884;8.762;2022-08-26T17:01:15;2.10;;;1.30;;
58252;SDS011;44050;48.884;8.762;2022-08-26T17:04:17;1.23;;;1.13;;
58252;SDS011;44050;48.884;8.762;2022-08-26T17:06:52;1.55;;;1.20;;
58252;SDS011;44050;48.884;8.762;2022-08-26T17:09:34;1.17;;;1.10;;
58252;SDS011;44050;48.884;8.762;2022-08-26T17:12:08;4.03;;;1.48;;
58252;SDS011;44050;48.884;8.762;2022-08-26T17:14:47;0.93;;;0.93;;
58252;SDS011;44050;48.884;8.762;2022-08-26T17:17:18;2.50;;;1.83;;
58252;SDS011;44050;48.884;8.762;2022-08-26T17:19:49;1.73;;;1.23;;
58252;SDS011;44050;48.884;8.762;2022-08-26T17:22:25;2.35;;;1.15;;
58252;SDS011;44050;48.884;8.762;2022-08-26T17:25:10;3.13;;;1.92;;
58252;SDS011;44050;48.884;8.762;2022-08-26T17:27:45;1.80;;;0.90;;
58252;SDS011;44050;48.884;8.762;2022-08-26T17:30:18;2.03;;;1.73;;
58252;SDS011;44050;48.884;8.762;2022-08-26T17:32:51;1.67;;;1.55;;
58252;SDS011;44050;48.884;8.762;2022-08-26T17:35:26;1.90;;;1.80;;
58252;SDS011;44050;48.884;8.762;2022-08-26T17:38:26;1.88;;;1.65;;
58252;SDS011;44050;48.884;8.762;2022-08-26T17:40:59;1.77;;;1.67;;
58252;SDS011;44050;48.884;8.762;2022-08-26T17:43:40;1.45;;;1.35;;
58252;SDS011;44050;48.884;8.762;2022-08-26T17:46:12;1.90;;;1.80;;
58252;SDS011;44050;48.884;8.762;2022-08-26T17:48:46;2.85;;;1.60;;
58252;SDS011;44050;48.884;8.762;2022-08-26T17:51:18;1.80;;;1.70;;
58252;SDS011;44050;48.884;8.762;2022-08-26T17:53:49;1.58;;;1.48;;
58252;SDS011;44050;48.884;8.762;2022-08-26T17:56:24;2.10;;;1.42;;
58252;SDS011;44050;48.884;8.762;2022-08-26T17:58:58;2.45;;;2.25;;
58252;SDS011;44050;48.884;8.762;2022-08-26T18:01:29;6.57;;;2.47;;
58252;SDS011;44050;48.884;8.762;2022-08-26T18:04:02;1.83;;;1.73;;
58252;SDS011;44050;48.884;8.762;2022-08-26T18:06:34;1.55;;;1.23;;
58252;SDS011;44050;48.884;8.762;2022-08-26T18:09:17;1.33;;;1.33;;
58252;SDS011;44050;48.884;8.762;2022-08-26T18:11:49;1.60;;;1.40;;
58252;SDS011;44050;48.884;8.762;2022-08-26T18:14:20;3.78;;;2.38;;
58252;SDS011;44050;48.884;8.762;2022-08-26T18:17:03;2.40;;;1.77;;
58252;SDS011;44050;48.884;8.762;2022-08-26T18:19:35;1.90;;;1.80;;
58252;SDS011;44050;48.884;8.762;2022-08-26T18:24:40;0.75;;;0.65;;
58252;SDS011;44050;48.884;8.762;2022-08-26T18:29:52;1.33;;;1.23;;
58252;SDS011;44050;48.884;8.762;2022-08-26T18:32:24;1.48;;;1.38;;
58252;SDS011;44050;48.884;8.762;2022-08-26T18:35:01;2.08;;;1.98;;
58252;SDS011;44050;48.884;8.762;2022-08-26T18:45:05;5.22;;;1.60;;
58252;SDS011;44050;48.884;8.762;2022-08-26T18:47:37;1.92;;;1.83;;
58252;SDS011;44050;48.884;8.762;2022-08-26T18:50:08;2.55;;;1.65;;